sensor_id;sensor_type;location;lat;lon;timestamp;pressure;altitude;pressure_sealevel;temperature
37414;BMP280;23279;46.472;30.760;2022-08-11T00:01:15;75322.66;;;-146.33
37414;BMP280;23279;46.472;30.760;2022-08-11T00:03:46;75336.88;;;-146.33
37414;BMP280;23279;46.472;30.760;2022-08-11T00:06:14;75338.91;;;-146.33
37414;BMP280;23279;46.472;30.760;2022-08-11T00:08:40;75328.75;;;-146.33
37414;BMP280;23279;46.472;30.760;2022-08-11T00:11:11;75292.16;;;-146.33
37414;BMP280;23279;46.472;30.760;2022-08-11T00:13:42;75275.88;;;-146.33
37414;BMP280;23279;46.472;30.760;2022-08-11T00:16:16;75245.41;;;-146.33
37414;BMP280;23279;46.472;30.760;2022-08-11T00:18:44;75218.97;;;-146.33
37414;BMP280;23279;46.472;30.760;2022-08-11T00:21:11;75157.97;;;-146.33
37414;BMP280;23279;46.472;30.760;2022-08-11T00:23:42;75137.66;;;-146.33
37414;BMP280;23279;46.472;30.760;2022-08-11T00:26:08;75157.97;;;-146.33
37414;BMP280;23279;46.472;30.760;2022-08-11T00:28:35;75200.66;;;-146.33
37414;BMP280;23279;46.472;30.760;2022-08-11T00:31:06;75241.31;;;-146.33
37414;BMP280;23279;46.472;30.760;2022-08-11T00:33:38;75336.88;;;-146.33
37414;BMP280;23279;46.472;30.760;2022-08-11T00:36:04;75452.75;;;-146.33
37414;BMP280;23279;46.472;30.760;2022-08-11T00:38:33;75639.81;;;-146.33
37414;BMP280;23279;46.472;30.760;2022-08-11T00:49:57;76436.94;;;-146.33
37414;BMP280;23279;46.472;30.760;2022-08-11T01:00:23;76148.16;;;-146.33
37414;BMP280;23279;46.472;30.760;2022-08-11T01:11:47;75826.88;;;-146.33
37414;BMP280;23279;46.472;30.760;2022-08-11T01:20:27;75769.94;;;-146.33
37414;BMP280;23279;46.472;30.760;2022-08-11T01:48:40;75379.56;;;-146.33
37414;BMP280;23279;46.472;30.760;2022-08-11T01:54:09;75424.31;;;-146.33
37414;BMP280;23279;46.472;30.760;2022-08-11T01:56:41;75456.84;;;-146.33
37414;BMP280;23279;46.472;30.760;2022-08-11T01:59:10;75446.66;;;-146.33
37414;BMP280;23279;46.472;30.760;2022-08-11T02:04:40;75444.63;;;-146.33
37414;BMP280;23279;46.472;30.760;2022-08-11T02:07:18;75464.97;;;-146.33
37414;BMP280;23279;46.472;30.760;2022-08-11T02:12:59;75566.63;;;-146.33
37414;BMP280;23279;46.472;30.760;2022-08-11T02:15:38;75595.09;;;-146.33
37414;BMP280;23279;46.472;30.760;2022-08-11T02:18:31;75570.69;;;-146.33
37414;BMP280;23279;46.472;30.760;2022-08-11T02:21:23;75562.56;;;-146.33
37414;BMP280;23279;46.472;30.760;2022-08-11T02:24:18;75556.44;;;-146.33
37414;BMP280;23279;46.472;30.760;2022-08-11T02:26:49;75548.31;;;-146.33
37414;BMP280;23279;46.472;30.760;2022-08-11T02:29:48;75497.50;;;-146.33
37414;BMP280;23279;46.472;30.760;2022-08-11T02:32:28;75511.72;;;-146.33
37414;BMP280;23279;46.472;30.760;2022-08-11T02:35:24;75460.91;;;-146.33
37414;BMP280;23279;46.472;30.760;2022-08-11T02:38:04;75460.91;;;-146.33
37414;BMP280;23279;46.472;30.760;2022-08-11T02:40:48;75408.03;;;-146.33
37414;BMP280;23279;46.472;30.760;2022-08-11T02:48:48;75397.88;;;-146.33
37414;BMP280;23279;46.472;30.760;2022-08-11T02:54:16;75369.41;;;-146.33
37414;BMP280;23279;46.472;30.760;2022-08-11T03:00:06;75408.03;;;-146.33
37414;BMP280;23279;46.472;30.760;2022-08-11T03:05:32;75440.56;;;-146.33
37414;BMP280;23279;46.472;30.760;2022-08-11T03:08:13;75458.88;;;-146.33
37414;BMP280;23279;46.472;30.760;2022-08-11T03:28:24;75505.63;;;-146.33
37414;BMP280;23279;46.472;30.760;2022-08-11T03:31:09;75528.00;;;-146.33
37414;BMP280;23279;46.472;30.760;2022-08-11T03:33:46;75554.41;;;-146.33
37414;BMP280;23279;46.472;30.760;2022-08-11T03:39:54;75507.66;;;-146.33
37414;BMP280;23279;46.472;30.760;2022-08-11T03:45:29;75505.63;;;-146.33
37414;BMP280;23279;46.472;30.760;2022-08-11T03:48:12;75505.63;;;-146.33
37414;BMP280;23279;46.472;30.760;2022-08-11T03:53:34;75485.28;;;-146.33
37414;BMP280;23279;46.472;30.760;2022-08-11T04:13:07;75566.63;;;-146.33
37414;BMP280;23279;46.472;30.760;2022-08-11T04:16:00;75570.69;;;-146.33
37414;BMP280;23279;46.472;30.760;2022-08-11T04:26:55;75656.06;;;-146.33
37414;BMP280;23279;46.472;30.760;2022-08-11T04:41:19;75928.53;;;-146.33
37414;BMP280;23279;46.472;30.760;2022-08-11T04:46:48;75916.34;;;-146.33
37414;BMP280;23279;46.472;30.760;2022-08-11T04:52:48;76050.56;;;-146.33
37414;BMP280;23279;46.472;30.760;2022-08-11T04:58:51;76093.25;;;-146.33
37414;BMP280;23279;46.472;30.760;2022-08-11T05:13:24;76331.19;;;-146.33
37414;BMP280;23279;46.472;30.760;2022-08-11T05:16:11;76369.84;;;-146.33
37414;BMP280;23279;46.472;30.760;2022-08-11T05:18:56;76520.34;;;-146.33
37414;BMP280;23279;46.472;30.760;2022-08-11T05:21:46;76430.84;;;-146.33
37414;BMP280;23279;46.472;30.760;2022-08-11T05:24:41;76382.03;;;-146.33
37414;BMP280;23279;46.472;30.760;2022-08-11T05:28:19;76459.31;;;-146.33
37414;BMP280;23279;46.472;30.760;2022-08-11T05:30:35;76477.63;;;-146.33
37414;BMP280;23279;46.472;30.760;2022-08-11T05:33:29;76504.06;;;-146.33
37414;BMP280;23279;46.472;30.760;2022-08-11T05:36:24;76416.59;;;-146.33
37414;BMP280;23279;46.472;30.760;2022-08-11T05:39:00;76416.59;;;-146.33
37414;BMP280;23279;46.472;30.760;2022-08-11T05:41:46;76396.28;;;-146.33
37414;BMP280;23279;46.472;30.760;2022-08-11T05:44:32;76404.41;;;-146.33
37414;BMP280;23279;46.472;30.760;2022-08-11T05:47:23;76428.81;;;-146.33
37414;BMP280;23279;46.472;30.760;2022-08-11T05:50:10;76426.78;;;-146.33
37414;BMP280;23279;46.472;30.760;2022-08-11T05:52:54;76455.25;;;-146.33
37414;BMP280;23279;46.472;30.760;2022-08-11T05:55:41;76453.22;;;-146.33
37414;BMP280;23279;46.472;30.760;2022-08-11T05:58:32;76467.44;;;-146.33
37414;BMP280;23279;46.472;30.760;2022-08-11T06:00:58;76534.56;;;-146.33
37414;BMP280;23279;46.472;30.760;2022-08-11T06:03:27;76542.72;;;-146.33
37414;BMP280;23279;46.472;30.760;2022-08-11T06:05:53;76687.13;;;-146.33
37414;BMP280;23279;46.472;30.760;2022-08-11T06:08:29;76823.38;;;-146.33
37414;BMP280;23279;46.472;30.760;2022-08-11T06:11:00;76868.13;;;-146.33
37414;BMP280;23279;46.472;30.760;2022-08-11T06:13:27;76872.22;;;-146.33
37414;BMP280;23279;46.472;30.760;2022-08-11T06:15:53;76894.59;;;-146.33
37414;BMP280;23279;46.472;30.760;2022-08-11T06:18:20;76914.94;;;-146.33
37414;BMP280;23279;46.472;30.760;2022-08-11T06:20:46;76853.91;;;-146.33
37414;BMP280;23279;46.472;30.760;2022-08-11T06:23:13;76868.13;;;-146.33
37414;BMP280;23279;46.472;30.760;2022-08-11T06:25:42;76857.97;;;-146.33
37414;BMP280;23279;46.472;30.760;2022-08-11T06:28:08;76862.03;;;-146.33
37414;BMP280;23279;46.472;30.760;2022-08-11T06:30:43;76892.53;;;-146.33
37414;BMP280;23279;46.472;30.760;2022-08-11T06:33:11;76904.75;;;-146.33
37414;BMP280;23279;46.472;30.760;2022-08-11T06:35:38;76929.16;;;-146.33
37414;BMP280;23279;46.472;30.760;2022-08-11T06:38:12;76990.19;;;-146.33
37414;BMP280;23279;46.472;30.760;2022-08-11T06:46:42;77014.59;;;-146.33
37414;BMP280;23279;46.472;30.760;2022-08-11T06:49:10;77032.91;;;-146.33
37414;BMP280;23279;46.472;30.760;2022-08-11T06:51:58;77043.06;;;-146.33
37414;BMP280;23279;46.472;30.760;2022-08-11T06:54:26;77039.00;;;-146.33
37414;BMP280;23279;46.472;30.760;2022-08-11T06:56:52;77020.69;;;-146.33
37414;BMP280;23279;46.472;30.760;2022-08-11T06:59:36;77026.81;;;-146.33
37414;BMP280;23279;46.472;30.760;2022-08-11T07:02:31;76990.19;;;-146.33
37414;BMP280;23279;46.472;30.760;2022-08-11T07:14:00;76961.72;;;-146.33
37414;BMP280;23279;46.472;30.760;2022-08-11T07:16:47;76967.81;;;-146.33
37414;BMP280;23279;46.472;30.760;2022-08-11T07:19:26;76949.50;;;-146.33
37414;BMP280;23279;46.472;30.760;2022-08-11T07:22:10;76959.69;;;-146.33
37414;BMP280;23279;46.472;30.760;2022-08-11T07:25:12;76919.00;;;-146.33
37414;BMP280;23279;46.472;30.760;2022-08-11T07:28:05;76937.31;;;-146.33
37414;BMP280;23279;46.472;30.760;2022-08-11T07:30:52;76904.75;;;-146.33
37414;BMP280;23279;46.472;30.760;2022-08-11T07:33:31;76900.69;;;-146.33
37414;BMP280;23279;46.472;30.760;2022-08-11T07:36:00;76941.38;;;-146.33
37414;BMP280;23279;46.472;30.760;2022-08-11T07:38:39;76886.44;;;-146.33
37414;BMP280;23279;46.472;30.760;2022-08-11T07:41:14;76894.59;;;-146.33
37414;BMP280;23279;46.472;30.760;2022-08-11T07:43:41;76882.38;;;-146.33
37414;BMP280;23279;46.472;30.760;2022-08-11T07:46:07;76870.19;;;-146.33
37414;BMP280;23279;46.472;30.760;2022-08-11T07:48:53;76870.19;;;-146.33
37414;BMP280;23279;46.472;30.760;2022-08-11T07:51:40;76866.09;;;-146.33
37414;BMP280;23279;46.472;30.760;2022-08-11T07:54:24;76857.97;;;-146.33
37414;BMP280;23279;46.472;30.760;2022-08-11T07:56:50;76910.84;;;-146.33
37414;BMP280;23279;46.472;30.760;2022-08-11T07:59:17;76943.41;;;-146.33
37414;BMP280;23279;46.472;30.760;2022-08-11T08:02:01;76971.88;;;-146.33
37414;BMP280;23279;46.472;30.760;2022-08-11T08:04:46;76973.91;;;-146.33
37414;BMP280;23279;46.472;30.760;2022-08-11T08:07:31;76945.44;;;-146.33
37414;BMP280;23279;46.472;30.760;2022-08-11T08:10:17;76973.91;;;-146.33
37414;BMP280;23279;46.472;30.760;2022-08-11T08:13:02;76992.22;;;-146.33
37414;BMP280;23279;46.472;30.760;2022-08-11T08:15:47;76977.97;;;-146.33
37414;BMP280;23279;46.472;30.760;2022-08-11T08:18:35;76986.13;;;-146.33
37414;BMP280;23279;46.472;30.760;2022-08-11T08:21:03;76965.78;;;-146.33
37414;BMP280;23279;46.472;30.760;2022-08-11T08:23:46;76961.72;;;-146.33
37414;BMP280;23279;46.472;30.760;2022-08-11T08:26:14;76951.53;;;-146.33
37414;BMP280;23279;46.472;30.760;2022-08-11T08:29:01;76959.69;;;-146.33
37414;BMP280;23279;46.472;30.760;2022-08-11T08:31:47;76953.56;;;-146.33
37414;BMP280;23279;46.472;30.760;2022-08-11T08:34:14;76955.59;;;-146.33
37414;BMP280;23279;46.472;30.760;2022-08-11T08:36:44;76933.22;;;-146.33
37414;BMP280;23279;46.472;30.760;2022-08-11T08:39:11;76949.50;;;-146.33
37414;BMP280;23279;46.472;30.760;2022-08-11T08:41:38;76939.34;;;-146.33
37414;BMP280;23279;46.472;30.760;2022-08-11T08:44:10;76929.16;;;-146.33
37414;BMP280;23279;46.472;30.760;2022-08-11T08:46:43;76943.41;;;-146.33
37414;BMP280;23279;46.472;30.760;2022-08-11T08:49:15;76912.88;;;-146.33
37414;BMP280;23279;46.472;30.760;2022-08-11T08:51:42;76884.41;;;-146.33
37414;BMP280;23279;46.472;30.760;2022-08-11T08:54:12;76900.69;;;-146.33
37414;BMP280;23279;46.472;30.760;2022-08-11T08:56:39;76910.84;;;-146.33
37414;BMP280;23279;46.472;30.760;2022-08-11T08:59:05;76910.84;;;-146.33
37414;BMP280;23279;46.472;30.760;2022-08-11T09:01:35;76923.06;;;-146.33
37414;BMP280;23279;46.472;30.760;2022-08-11T09:04:08;76923.06;;;-146.33
37414;BMP280;23279;46.472;30.760;2022-08-11T09:06:36;76892.53;;;-146.33
37414;BMP280;23279;46.472;30.760;2022-08-11T09:09:05;76906.78;;;-146.33
37414;BMP280;23279;46.472;30.760;2022-08-11T09:11:34;76925.09;;;-146.33
37414;BMP280;23279;46.472;30.760;2022-08-11T09:14:20;76916.97;;;-146.33
37414;BMP280;23279;46.472;30.760;2022-08-11T09:16:46;76916.97;;;-146.33
37414;BMP280;23279;46.472;30.760;2022-08-11T09:19:15;76919.00;;;-146.33
37414;BMP280;23279;46.472;30.760;2022-08-11T09:21:46;76916.97;;;-146.33
37414;BMP280;23279;46.472;30.760;2022-08-11T09:24:36;76919.00;;;-146.33
37414;BMP280;23279;46.472;30.760;2022-08-11T09:27:21;76921.03;;;-146.33
37414;BMP280;23279;46.472;30.760;2022-08-11T09:29:47;76929.16;;;-146.33
37414;BMP280;23279;46.472;30.760;2022-08-11T09:32:13;76937.31;;;-146.33
37414;BMP280;23279;46.472;30.760;2022-08-11T09:34:39;76914.94;;;-146.33
37414;BMP280;23279;46.472;30.760;2022-08-11T09:37:05;76921.03;;;-146.33
37414;BMP280;23279;46.472;30.760;2022-08-11T09:39:50;76933.22;;;-146.33
37414;BMP280;23279;46.472;30.760;2022-08-11T09:42:34;76916.97;;;-146.33
37414;BMP280;23279;46.472;30.760;2022-08-11T09:45:26;76943.41;;;-146.33
37414;BMP280;23279;46.472;30.760;2022-08-11T09:47:52;76937.31;;;-146.33
37414;BMP280;23279;46.472;30.760;2022-08-11T09:50:18;76957.66;;;-146.33
37414;BMP280;23279;46.472;30.760;2022-08-11T09:52:45;76925.09;;;-146.33
37414;BMP280;23279;46.472;30.760;2022-08-11T09:55:13;76977.97;;;-146.33
37414;BMP280;23279;46.472;30.760;2022-08-11T09:57:44;76973.91;;;-146.33
37414;BMP280;23279;46.472;30.760;2022-08-11T10:00:31;76961.72;;;-146.33
37414;BMP280;23279;46.472;30.760;2022-08-11T10:02:57;76959.69;;;-146.33
37414;BMP280;23279;46.472;30.760;2022-08-11T10:05:28;76941.38;;;-146.33
37414;BMP280;23279;46.472;30.760;2022-08-11T10:08:15;76953.56;;;-146.33
37414;BMP280;23279;46.472;30.760;2022-08-11T10:10:44;76951.53;;;-146.33
37414;BMP280;23279;46.472;30.760;2022-08-11T10:13:16;76963.75;;;-146.33
37414;BMP280;23279;46.472;30.760;2022-08-11T10:15:44;76969.84;;;-146.33
37414;BMP280;23279;46.472;30.760;2022-08-11T10:18:16;76967.81;;;-146.33
37414;BMP280;23279;46.472;30.760;2022-08-11T10:21:09;76935.28;;;-146.33
37414;BMP280;23279;46.472;30.760;2022-08-11T10:23:36;76916.97;;;-146.33
37414;BMP280;23279;46.472;30.760;2022-08-11T10:26:23;76947.47;;;-146.33
37414;BMP280;23279;46.472;30.760;2022-08-11T10:29:09;76937.31;;;-146.33
37414;BMP280;23279;46.472;30.760;2022-08-11T10:31:54;76906.78;;;-146.33
37414;BMP280;23279;46.472;30.760;2022-08-11T10:34:39;76906.78;;;-146.33
37414;BMP280;23279;46.472;30.760;2022-08-11T10:37:05;76937.31;;;-146.33
37414;BMP280;23279;46.472;30.760;2022-08-11T10:39:31;76941.38;;;-146.33
37414;BMP280;23279;46.472;30.760;2022-08-11T10:41:58;76965.78;;;-146.33
37414;BMP280;23279;46.472;30.760;2022-08-11T10:44:46;76939.34;;;-146.33
37414;BMP280;23279;46.472;30.760;2022-08-11T10:47:13;76953.56;;;-146.33
37414;BMP280;23279;46.472;30.760;2022-08-11T10:49:59;76961.72;;;-146.33
37414;BMP280;23279;46.472;30.760;2022-08-11T10:52:46;76957.66;;;-146.33
37414;BMP280;23279;46.472;30.760;2022-08-11T10:55:31;76943.41;;;-146.33
37414;BMP280;23279;46.472;30.760;2022-08-11T10:58:16;76916.97;;;-146.33
37414;BMP280;23279;46.472;30.760;2022-08-11T11:01:01;76933.22;;;-146.33
37414;BMP280;23279;46.472;30.760;2022-08-11T11:03:29;76914.94;;;-146.33
37414;BMP280;23279;46.472;30.760;2022-08-11T11:06:03;76884.41;;;-146.33
37414;BMP280;23279;46.472;30.760;2022-08-11T11:08:30;76880.34;;;-146.33
37414;BMP280;23279;46.472;30.760;2022-08-11T11:11:17;76908.81;;;-146.33
37414;BMP280;23279;46.472;30.760;2022-08-11T11:13:46;76900.69;;;-146.33
37414;BMP280;23279;46.472;30.760;2022-08-11T11:16:33;76900.69;;;-146.33
37414;BMP280;23279;46.472;30.760;2022-08-11T11:19:21;76894.59;;;-146.33
37414;BMP280;23279;46.472;30.760;2022-08-11T11:21:51;76864.06;;;-146.33
37414;BMP280;23279;46.472;30.760;2022-08-11T11:24:45;76872.22;;;-146.33
37414;BMP280;23279;46.472;30.760;2022-08-11T11:30:14;76845.75;;;-146.33
37414;BMP280;23279;46.472;30.760;2022-08-11T11:32:56;76798.97;;;-146.33
37414;BMP280;23279;46.472;30.760;2022-08-11T11:35:34;76723.72;;;-146.33
37414;BMP280;23279;46.472;30.760;2022-08-11T11:38:01;76656.59;;;-146.33
37414;BMP280;23279;46.472;30.760;2022-08-11T11:40:27;76591.53;;;-146.33
37414;BMP280;23279;46.472;30.760;2022-08-11T11:42:56;76497.97;;;-146.33
37414;BMP280;23279;46.472;30.760;2022-08-11T11:45:23;76453.22;;;-146.33
37414;BMP280;23279;46.472;30.760;2022-08-11T11:47:51;76412.53;;;-146.33
37414;BMP280;23279;46.472;30.760;2022-08-11T11:50:29;76339.31;;;-146.33
37414;BMP280;23279;46.472;30.760;2022-08-11T11:52:57;76300.69;;;-146.33
37414;BMP280;23279;46.472;30.760;2022-08-11T11:55:24;76341.34;;;-146.33
37414;BMP280;23279;46.472;30.760;2022-08-11T11:57:53;76310.84;;;-146.33
37414;BMP280;23279;46.472;30.760;2022-08-11T12:00:40;76249.84;;;-146.33
37414;BMP280;23279;46.472;30.760;2022-08-11T12:03:35;76343.41;;;-146.33
37414;BMP280;23279;46.472;30.760;2022-08-11T12:06:02;76441.00;;;-146.33
37414;BMP280;23279;46.472;30.760;2022-08-11T12:08:29;76445.09;;;-146.33
37414;BMP280;23279;46.472;30.760;2022-08-11T12:11:01;76475.59;;;-146.33
37414;BMP280;23279;46.472;30.760;2022-08-11T12:13:48;76469.50;;;-146.33
37414;BMP280;23279;46.472;30.760;2022-08-11T12:16:16;76479.66;;;-146.33
37414;BMP280;23279;46.472;30.760;2022-08-11T12:18:45;76467.44;;;-146.33
37414;BMP280;23279;46.472;30.760;2022-08-11T12:21:13;76514.22;;;-146.33
37414;BMP280;23279;46.472;30.760;2022-08-11T12:23:39;76526.44;;;-146.33
37414;BMP280;23279;46.472;30.760;2022-08-11T12:26:24;76479.66;;;-146.33
37414;BMP280;23279;46.472;30.760;2022-08-11T12:29:10;76526.44;;;-146.33
37414;BMP280;23279;46.472;30.760;2022-08-11T12:31:37;76556.94;;;-146.33
37414;BMP280;23279;46.472;30.760;2022-08-11T12:34:05;76581.34;;;-146.33
37414;BMP280;23279;46.472;30.760;2022-08-11T12:36:34;76571.19;;;-146.33
37414;BMP280;23279;46.472;30.760;2022-08-11T12:39:02;76611.84;;;-146.33
37414;BMP280;23279;46.472;30.760;2022-08-11T12:41:30;76607.78;;;-146.33
37414;BMP280;23279;46.472;30.760;2022-08-11T12:44:14;76632.19;;;-146.33
37414;BMP280;23279;46.472;30.760;2022-08-11T12:47:00;76620.00;;;-146.33
37414;BMP280;23279;46.472;30.760;2022-08-11T12:49:27;76611.84;;;-146.33
37414;BMP280;23279;46.472;30.760;2022-08-11T12:52:20;76611.84;;;-146.33
37414;BMP280;23279;46.472;30.760;2022-08-11T12:55:05;76640.34;;;-146.33
37414;BMP280;23279;46.472;30.760;2022-08-11T12:57:38;76685.06;;;-146.33
37414;BMP280;23279;46.472;30.760;2022-08-11T13:00:25;76672.88;;;-146.33
37414;BMP280;23279;46.472;30.760;2022-08-11T13:03:12;76674.91;;;-146.33
37414;BMP280;23279;46.472;30.760;2022-08-11T13:05:59;76693.22;;;-146.33
37414;BMP280;23279;46.472;30.760;2022-08-11T13:08:27;76717.63;;;-146.33
37414;BMP280;23279;46.472;30.760;2022-08-11T13:10:54;76719.66;;;-146.33
37414;BMP280;23279;46.472;30.760;2022-08-11T13:13:40;76725.75;;;-146.33
37414;BMP280;23279;46.472;30.760;2022-08-11T13:16:08;76715.59;;;-146.33
37414;BMP280;23279;46.472;30.760;2022-08-11T13:18:38;76713.56;;;-146.33
37414;BMP280;23279;46.472;30.760;2022-08-11T13:21:08;76733.91;;;-146.33
37414;BMP280;23279;46.472;30.760;2022-08-11T13:23:35;76729.81;;;-146.33
37414;BMP280;23279;46.472;30.760;2022-08-11T13:26:02;76713.56;;;-146.33
37414;BMP280;23279;46.472;30.760;2022-08-11T13:28:28;76733.91;;;-146.33
37414;BMP280;23279;46.472;30.760;2022-08-11T13:30:54;76737.97;;;-146.33
37414;BMP280;23279;46.472;30.760;2022-08-11T13:33:43;76758.31;;;-146.33
37414;BMP280;23279;46.472;30.760;2022-08-11T13:36:10;76766.44;;;-146.33
37414;BMP280;23279;46.472;30.760;2022-08-11T13:38:37;76772.53;;;-146.33
37414;BMP280;23279;46.472;30.760;2022-08-11T13:41:05;76770.50;;;-146.33
37414;BMP280;23279;46.472;30.760;2022-08-11T13:43:52;76774.56;;;-146.33
37414;BMP280;23279;46.472;30.760;2022-08-11T13:46:19;76794.91;;;-146.33
37414;BMP280;23279;46.472;30.760;2022-08-11T13:48:49;76803.06;;;-146.33
37414;BMP280;23279;46.472;30.760;2022-08-11T13:51:15;76794.91;;;-146.33
37414;BMP280;23279;46.472;30.760;2022-08-11T13:54:05;76803.06;;;-146.33
37414;BMP280;23279;46.472;30.760;2022-08-11T13:56:32;76796.94;;;-146.33
37414;BMP280;23279;46.472;30.760;2022-08-11T13:59:01;76801.03;;;-146.33
37414;BMP280;23279;46.472;30.760;2022-08-11T14:01:31;76803.06;;;-146.33
37414;BMP280;23279;46.472;30.760;2022-08-11T14:04:04;76788.81;;;-146.33
37414;BMP280;23279;46.472;30.760;2022-08-11T14:06:32;76778.63;;;-146.33
37414;BMP280;23279;46.472;30.760;2022-08-11T14:09:00;76786.78;;;-146.33
37414;BMP280;23279;46.472;30.760;2022-08-11T14:11:28;76780.69;;;-146.33
37414;BMP280;23279;46.472;30.760;2022-08-11T14:14:19;76774.56;;;-146.33
37414;BMP280;23279;46.472;30.760;2022-08-11T14:16:47;76770.50;;;-146.33
37414;BMP280;23279;46.472;30.760;2022-08-11T14:19:14;76788.81;;;-146.33
37414;BMP280;23279;46.472;30.760;2022-08-11T14:21:43;76786.78;;;-146.33
37414;BMP280;23279;46.472;30.760;2022-08-11T14:24:28;76786.78;;;-146.33
37414;BMP280;23279;46.472;30.760;2022-08-11T14:26:54;76792.88;;;-146.33
37414;BMP280;23279;46.472;30.760;2022-08-11T14:29:22;76782.72;;;-146.33
37414;BMP280;23279;46.472;30.760;2022-08-11T14:31:50;76801.03;;;-146.33
37414;BMP280;23279;46.472;30.760;2022-08-11T14:34:19;76805.09;;;-146.33
37414;BMP280;23279;46.472;30.760;2022-08-11T14:36:54;76794.91;;;-146.33
37414;BMP280;23279;46.472;30.760;2022-08-11T14:39:27;76798.97;;;-146.33
37414;BMP280;23279;46.472;30.760;2022-08-11T14:42:09;76786.78;;;-146.33
37414;BMP280;23279;46.472;30.760;2022-08-11T14:45:06;76780.69;;;-146.33
37414;BMP280;23279;46.472;30.760;2022-08-11T14:47:55;76790.84;;;-146.33
37414;BMP280;23279;46.472;30.760;2022-08-11T14:50:25;76766.44;;;-146.33
37414;BMP280;23279;46.472;30.760;2022-08-11T14:52:55;76719.66;;;-146.33
37414;BMP280;23279;46.472;30.760;2022-08-11T14:55:23;76715.59;;;-146.33
37414;BMP280;23279;46.472;30.760;2022-08-11T14:58:10;76766.44;;;-146.33
37414;BMP280;23279;46.472;30.760;2022-08-11T15:00:36;76754.22;;;-146.33
37414;BMP280;23279;46.472;30.760;2022-08-11T15:03:03;76699.31;;;-146.33
37414;BMP280;23279;46.472;30.760;2022-08-11T15:08:04;76636.25;;;-146.33
37414;BMP280;23279;46.472;30.760;2022-08-11T15:10:31;76644.41;;;-146.33
37414;BMP280;23279;46.472;30.760;2022-08-11T15:12:57;76658.63;;;-146.33
37414;BMP280;23279;46.472;30.760;2022-08-11T15:15:24;76664.75;;;-146.33
37414;BMP280;23279;46.472;30.760;2022-08-11T15:18:11;76687.13;;;-146.33
37414;BMP280;23279;46.472;30.760;2022-08-11T15:20:39;76733.91;;;-146.33
37414;BMP280;23279;46.472;30.760;2022-08-11T15:23:25;76733.91;;;-146.33
37414;BMP280;23279;46.472;30.760;2022-08-11T15:26:15;76754.22;;;-146.33
37414;BMP280;23279;46.472;30.760;2022-08-11T15:28:48;76782.72;;;-146.33
37414;BMP280;23279;46.472;30.760;2022-08-11T15:31:34;76801.03;;;-146.33
37414;BMP280;23279;46.472;30.760;2022-08-11T15:34:21;76805.09;;;-146.33
37414;BMP280;23279;46.472;30.760;2022-08-11T15:37:11;76813.22;;;-146.33
37414;BMP280;23279;46.472;30.760;2022-08-11T15:40:07;76815.25;;;-146.33
37414;BMP280;23279;46.472;30.760;2022-08-11T15:46:15;76780.69;;;-146.33
37414;BMP280;23279;46.472;30.760;2022-08-11T15:48:47;76798.97;;;-146.33
37414;BMP280;23279;46.472;30.760;2022-08-11T15:51:20;76798.97;;;-146.33
37414;BMP280;23279;46.472;30.760;2022-08-11T15:53:56;76827.47;;;-146.33
37414;BMP280;23279;46.472;30.760;2022-08-11T15:56:23;76855.94;;;-146.33
37414;BMP280;23279;46.472;30.760;2022-08-11T15:58:51;76849.84;;;-146.33
37414;BMP280;23279;46.472;30.760;2022-08-11T16:01:37;76857.97;;;-146.33
37414;BMP280;23279;46.472;30.760;2022-08-11T16:04:24;76845.75;;;-146.33
37414;BMP280;23279;46.472;30.760;2022-08-11T16:07:00;76843.72;;;-146.33
37414;BMP280;23279;46.472;30.760;2022-08-11T16:09:32;76833.56;;;-146.33
37414;BMP280;23279;46.472;30.760;2022-08-11T16:12:03;76882.38;;;-146.33
37414;BMP280;23279;46.472;30.760;2022-08-11T16:14:33;76919.00;;;-146.33
37414;BMP280;23279;46.472;30.760;2022-08-11T16:17:19;76945.44;;;-146.33
37414;BMP280;23279;46.472;30.760;2022-08-11T16:19:47;76943.41;;;-146.33
37414;BMP280;23279;46.472;30.760;2022-08-11T16:22:20;76937.31;;;-146.33
37414;BMP280;23279;46.472;30.760;2022-08-11T16:24:53;76941.38;;;-146.33
37414;BMP280;23279;46.472;30.760;2022-08-11T16:27:19;76953.56;;;-146.33
37414;BMP280;23279;46.472;30.760;2022-08-11T16:29:46;76967.81;;;-146.33
37414;BMP280;23279;46.472;30.760;2022-08-11T16:32:16;77002.41;;;-146.33
37414;BMP280;23279;46.472;30.760;2022-08-11T16:34:44;77006.47;;;-146.33
37414;BMP280;23279;46.472;30.760;2022-08-11T16:37:33;77039.00;;;-146.33
37414;BMP280;23279;46.472;30.760;2022-08-11T16:40:18;77039.00;;;-146.33
37414;BMP280;23279;46.472;30.760;2022-08-11T16:42:46;77022.75;;;-146.33
37414;BMP280;23279;46.472;30.760;2022-08-11T16:45:31;77020.69;;;-146.33
37414;BMP280;23279;46.472;30.760;2022-08-11T16:48:16;77039.00;;;-146.33
37414;BMP280;23279;46.472;30.760;2022-08-11T16:50:43;77039.00;;;-146.33
37414;BMP280;23279;46.472;30.760;2022-08-11T16:53:08;77030.88;;;-146.33
37414;BMP280;23279;46.472;30.760;2022-08-11T16:55:34;77026.81;;;-146.33
37414;BMP280;23279;46.472;30.760;2022-08-11T16:58:00;77039.00;;;-146.33
37414;BMP280;23279;46.472;30.760;2022-08-11T17:00:47;77030.88;;;-146.33
37414;BMP280;23279;46.472;30.760;2022-08-11T17:03:14;77020.69;;;-146.33
37414;BMP280;23279;46.472;30.760;2022-08-11T17:05:59;77020.69;;;-146.33
37414;BMP280;23279;46.472;30.760;2022-08-11T17:08:54;77008.50;;;-146.33
37414;BMP280;23279;46.472;30.760;2022-08-11T17:11:45;77010.53;;;-146.33
37414;BMP280;23279;46.472;30.760;2022-08-11T17:14:43;77008.50;;;-146.33
37414;BMP280;23279;46.472;30.760;2022-08-11T17:17:22;77020.69;;;-146.33
37414;BMP280;23279;46.472;30.760;2022-08-11T17:19:54;77039.00;;;-146.33
37414;BMP280;23279;46.472;30.760;2022-08-11T17:22:20;77026.81;;;-146.33
37414;BMP280;23279;46.472;30.760;2022-08-11T17:25:07;77026.81;;;-146.33
37414;BMP280;23279;46.472;30.760;2022-08-11T17:27:33;77039.00;;;-146.33
37414;BMP280;23279;46.472;30.760;2022-08-11T17:30:06;77024.78;;;-146.33